空港情報

日本の空港の気象及び、管制情報です。
気象情報はより詳細な情報が取得できる「AVIATION WEATER CENTER」 から取得しているため、VATSIMの気象情報と若干のタイムラグが生じることがあります。

VRCのフィールド設定用空港一覧はこちらをご覧ください。

RJCG Sapporo Control

RJCW / Wakkanai
VMC

NO RADAR

RADIO

08/26 2200x45

民間 civil

9999

070@15KT

29.85

RJCW 160000Z 07015KT 9999 -SHRA FEW005 SCT015 BKN020 15/14 Q1011

RJER / Rishiri

NO RADAR

REMOTE

25/07 1800x45

民間 civil

過去5時間に発表されたMETARがありません。

RJEB / Monbetsu
IMC

NO RADAR

REMOTE

32/14 2000x45

民間 civil

5000

080@10KT

29.82

RJEB 160023Z 08010KT 5000 SHRA BR FEW002 BKN005 15/14 Q1010 RMK 1ST002 7ST005 A2984 9999NE

RJCM / Memanbetsu
IMC

NO RADAR

TOWER

36/18 2500x45

民間 civil

4900

010@7KT

29.79

RJCM 160038Z 01007KT 4900 -SHRA BR FEW001 SCT004 BKN007 16/15 Q1009 RMK 1ST001 3ST004 6ST007 A2981

RJEC / Asahikawa
IMC

NO RADAR

TOWER

34/16 2500x60

民間 civil

4000

320@4KT

29.70

RJEC 160029Z 32004KT 4000 -SHRA BR FEW002 SCT003 BKN004 16/15 Q1006 RMK 1ST002 4ST003 6ST004 A2972

RJCN / Nakashibetsu
IMC

NO RADAR

RADIO

08/26 2000x45

民間 civil

2500

050@12KT

29.82

RJCN 160000Z 05012KT 2500 -SHRA BR FEW002 BKN003 BKN006 13/13 Q1010

RJCK / Kushiro
IMC

NO RADAR

TOWER

17/35 2500x45

民間 civil

4900

020@9KT

29.76

RJCK 160007Z 02009KT 4900 -SHRA BR FEW001 SCT003 BKN004 15/14 Q1008 RMK 1ST001 4ST003 6ST004 A2979

RJCO / Sapporo
IMC

RJCO_APP

TOWER

14/32 1500x30

共用 dual

5000

100@8KT

29.70

RJCO 152206Z 10008KT 5000 -SHRA BR FEW005 BKN008 BKN015 18/18 Q1006 RMK 1ST005 5ST008 7ST015 A2972

RJCJ / Chitose

RJCC_APP

TOWER

36R/18L 3000x60
36L/18R 2700x45

自衛隊 military

過去5時間に発表されたMETARがありません。

RJCC / NewChitose
IMC

RJCC_APP

TOWER

01L/19R 3000x60
01R/19L 3000x60

民間 civil

2500

100@6KT

29.65

RJCC 160030Z 10006KT 2500 -SHRA BR FEW002 BKN005 BKN018 18/17 Q1004 RMK 1ST002 5ST005 6ST018 A2967

RJCB / Obihiro
IMC

NO RADAR

TOWER

35/17 2500x45

民間 civil

3200

100@4KT

29.76

RJCB 160000Z 10004KT 050V130 3200 SHRA BR FEW002 BKN004 BKN006 15/15 Q1008

RJEO / Okushiri

NO RADAR

REMOTE

12/30 1500x45

民間 civil

過去5時間に発表されたMETARがありません。

RJCH / Hakodate
IMC

RJCH_APP

TOWER

12/30 3000x45

民間 civil

5000

090@9KT

29.62

RJCH 160000Z 09009KT 5000 -SHRA BR FEW003 BKN008 BKN012 19/18 Q1003

RJSA / Aomori
IMC

NO RADAR

TOWER

24/06 3000x60

民間 civil

1600

070@4KT

29.62

RJSA 160000Z 07004KT 1600 BCFG -SHRA BR FEW001 SCT003 BKN030 22/20 Q1003

RJSO / Ominato
IMC

RJSM_APP

TOWER

04/22 600x45

自衛隊 military

3200

050@6KT

29.65

RJSO 160026Z 05006KT 010V070 3200 -SHRA BR FEW003 SCT005 OVC010 19/18 Q1004 RMK 1ST003 3ST005 8ST010 A2965

RJSM / Misawa

RJSM_APP

TOWER

10/28 3050x45

共用 dual

過去5時間に発表されたMETARがありません。

RJSH / Hachinohe
IMC

RJSM_APP

TOWER

25/07 2250x45

自衛隊 military

5000

090@12KT

29.65

RJSH 152225Z 09012KT 5000 -SHRA BR SCT003 BKN008 BKN040 20/19 Q1004 RMK 3ST003 6ST008 7CU040 A2966

RJSK / Akita
IMC

NO RADAR

TOWER

10/28 2500x60

民間 civil

3500

110@5KT

29.65

RJSK 160039Z 11005KT 3500 R28/P1800N SHRA PRFG BR FEW001 BKN003 BKN020 21/20 Q1004 RMK 1ST001 5ST003 5CU020 A2966 1500NE-E

RJSI / Hanamaki
VMC

NO RADAR

RADIO

20/02 2500x45

民間 civil

9999

180@6KT

29.65

RJSI 160033Z 18006KT 150V220 9999 SHRA FEW003 SCT010 BKN020 22/22 Q1004 RMK 1ST003 4CU010 6CU020 A2966

RJSR / Odate-Noshiro
IMC

NO RADAR

REMOTE

11/29 2000x45

民間 civil

4000

000@0KT

29.62

RJSR 160023Z 00000KT 4000 R11/2000N -SHRA BR FEW001 SCT004 BKN015 22/22 Q1003 RMK 1ST001 4ST004 6CU015 A2964

RJTG Tokyo Control

RJSY / Shonai
IMC

NO RADAR

RADIO

09/27 2000x45

民間 civil

1000

350@3KT

29.68

RJSY 160038Z 35003KT 300V110 1000 R09/0450V1300D +SHRA BR FEW001 SCT003 BKN007 22/21 Q1005 RMK 1ST001 3ST003 6ST007 A2968 RI++

RJSC / Yamagata
VMC

NO RADAR

RADIO

01/19 2000x45

民間 civil

5000

130@4KT

29.68

RJSC 160009Z 13004KT 080V160 5000 -SHRA BR FEW005 SCT010 BKN030 22/22 Q1005 RMK 1ST005 3ST010 7CU030 A2970

RJST / Matsushima

RJSS_APP

TOWER

07/25 2071x46
15/33 1500x46

自衛隊 military

過去5時間に発表されたMETARがありません。

RJSS / Sendai
VMC

RJSS_APP

TOWER

27/09 3000x45
12/30 1200x45

民間 civil

9999

040@9KT

29.65

RJSS 160000Z 04009KT 9999 FEW005 BKN040 BKN080 25/22 Q1004

RJSD / Sado

NO RADAR

REMOTE

10/28 890x25

民間 civil

過去5時間に発表されたMETARがありません。

RJSN / Niigata
VMC

RJSN_APP

TOWER

10/28 2500x45
04/22 1314x45

民間 civil

9999

150@9KT

29.62

RJSN 160000Z 15009KT 9999 -SHRA FEW005 SCT010 BKN020 26/26 Q1003

RJSF / Fukushima
VMC

NO RADAR

RADIO

01/19 2500x60

民間 civil

9999

190@6KT

29.73

RJSF 160000Z 19006KT 170V230 9999 FEW009 SCT012 BKN015 26/24 Q1007

RJAH / Ibaraki/Hyakuri
VMC

RJAH_APP

TOWER

03L/21R 2700x45
03R/21L 2700x45

共用 dual

9999

220@20G30KT

29.70

RJAH 160014Z 22020G30KT 9999 FEW015 SCT020 BKN230 31/22 Q1006 RMK 1SC015 3SC020 A2972

RJTT / Tokyo
VMC

RJTT_APP

TOWER

34LR/16RL 3000x60
04/22&05/23 2500x60

民間 civil

9999

190@21G31KT

29.73

RJTT 160037Z 19021G31KT 9999 FEW015 BKN/// 31/24 Q1007 RMK 1CU015 A2975

RJAA / Narita
VMC

RJTT_APP

TOWER

34L/16R 4000x60
34R/16L 2500x60

民間 civil

9999

220@18G29KT

29.73

RJAA 160030Z 22018G29KT 190V260 9999 FEW020 BKN/// 31/22 Q1007 WS R16R WS R16L NOSIG RMK 1CU020 A2974

RJTL / Shimofusa

RJTT_APP

TOWER

19/01 2250x45

自衛隊 military

過去5時間に発表されたMETARがありません。

RJTE / Tateyama
VMC

RJTT_APP

TOWER

09/27 300x45

自衛隊 military

9999

220@15G25KT

29.79

RJTE 152353Z 22015G25KT 170V250 9999 FEW015 SCT230 29/24 Q1009 RMK 1CU015 A2981

RJTO / Oshima
VMC

NO RADAR

RADIO

03/21 1800x45

民間 civil

9999

220@19G29KT

29.79

RJTO 160000Z 22019G29KT 9999 FEW015 SCT/// 29/24 Q1009

RJTK / Kisarazu
VMC

NO RADAR

TOWER

02/20 1830x45

自衛隊 military

9999

210@26G40KT

29.76

RJTK 152347Z 21026G40KT 9999 FEW015 SCT240 29/25 Q1008 RMK 1CU015 3CI240 A2977

RJAN / Niijima

NO RADAR

REMOTE

11/29 800x25

自衛隊 military

過去5時間に発表されたMETARがありません。

RJAZ / Kozushima

NO RADAR

REMOTE

11/29 800x25

民間 civil

過去5時間に発表されたMETARがありません。

RJTH / Hachijojima

NO RADAR

RADIO

26/08 2000x45

民間 civil

過去5時間に発表されたMETARがありません。

RJTF / Chofu
VMC

NO RADAR

Flight Service

35/17 800x30

民間 civil

9999

190@14KT

29.73

RJTF 160000Z 19014KT 150V230 9999 VCSH FEW020 SCT100 BKN/// 30/24 Q1007

RJTQ / Miyake

NO RADAR

REMOTE

02/20 1200x30

民間 civil

過去5時間に発表されたMETARがありません。

RJTC / Tachikawa

NO RADAR

TOWER

01/19 900x45

自衛隊 military

過去5時間に発表されたMETARがありません。

RJTA / Atsugi

NO RADAR

TOWER

01/19 2438x45

自衛隊 military

過去5時間に発表されたMETARがありません。

RJTU / Utsunomiya
VMC

RJTY_APP

TOWER

01/19 1700x45

自衛隊 military

9999

210@11G21KT

29.73

RJTU 160034Z 21011G21KT 9999 FEW010 SCT020 BKN210 31/23 Q1007 RMK 1ST010 4CU020 5CI210 A2973

RJTJ / Iruma

RJTY_APP

TOWER

17/35 2000x45

自衛隊 military

過去5時間に発表されたMETARがありません。

RJTY / Yokota
VMC

RJTY_APP

TOWER

18/36 3353x60

自衛隊 military

9999

180@14G20KT

29.78

RJTY 152356Z AUTO 18014G20KT 10SM CLR 30/23 A2978 RMK AO2 SLP079 T03000232 10301 20261 57010 FZRANO $

RJAF / Matsumoto
VMC

NO RADAR

RADIO

18/36 2000x45

民間 civil

9999

160@12KT

29.82

RJAF 160000Z 16012KT 9999 -SHRA FEW020 SCT040 BKN100 27/19 Q1010

RJNS / Shizuoka
VMC

NO RADAR

RADIO

30/12 2500x60

民間 civil

9999

230@7KT

29.82

RJNS 160000Z 23007KT 200V270 9999 VCSH FEW000 SCT010 BKN025 26/26 Q1010

RJNY / Yaizu-Shizuhama
VMC

NO RADAR

TOWER

27/09 1500x45

自衛隊 military

9999

280@9KT

29.82

RJNY 152346Z 28009KT 240V310 9999 SHRA FEW004 BKN015 SCT025CB BKN250 26/25 Q1010 RMK 1ST004 6CU015 3CB025 A2983 VIS S-SW 5KM CB 10KM W-N MOV NE

RJNH / Hamamatsu

RJNH_APP

TOWER

09/27 2550x60

自衛隊 military

過去5時間に発表されたMETARがありません。

RJGG / Chubu
VMC

RJGG_APP

TOWER

36/18 3500x60

民間 civil

9999

200@7KT

29.79

RJGG 160030Z 20007KT 9999 FEW015 BKN100 BKN/// 28/25 Q1009 NOSIG

RJNA / Nagoya

RJGG_APP

TOWER

34/16 2740x45

民間 civil

過去5時間に発表されたMETARがありません。

RJNG / Gifu
VMC

RJGG_APP

TOWER

28/10 2710x46

自衛隊 military

9999

000@5KT

29.79

RJNG 160010Z VRB05KT 9999 -SHRA FEW010 BKN015 BKN050 29/25 Q1009 RMK 1CU010 6CU015 7SC050 A2980

RJOE / Akeno

RJOE_APP

TOWER

13/31 500x30
04/22 500x30

自衛隊 military

過去5時間に発表されたMETARがありません。

RJNK / Komatsu
VMC

RJNK_APP

TOWER

06/24 2700x45

共用 dual

9999

210@17KT

29.73

RJNK 160000Z 21017KT 9999 FEW030 SCT080 BKN120 33/15 Q1007

RJNW / Noto
IMC

NO RADAR

RADIO

25/07 2000x45

民間 civil

0500

270@11KT

29.73

RJNW 160000Z 27011KT 240V310 0500 R25/0250V0550U +SHRA FG FEW004 SCT006 BKN010 23/23 Q1007

RJNT / Toyama
VMC

NO RADAR

TOWER

20/02 2000x45

民間 civil

9999

180@10KT

29.68

RJNT 160000Z 18010KT 140V200 9999 FEW030 SCT070 BKN/// 32/23 Q1005

RJNF / Fukui

NO RADAR

REMOTE

18/36 1200x30

民間 civil

過去5時間に発表されたMETARがありません。

RJBD / Nanki-Shirahama
VMC

NO RADAR

RADIO

15/33 2000x45

民間 civil

7000

170@8KT

29.85

RJBD 160005Z 17008KT 140V220 7000 -SHRA FEW002 SCT020 FEW025CB BKN030 25/24 Q1011 RMK 1ST002 4CU020 1CB025 6CU030 A2986 CB 10KM NE MOV NE

RJOY / Yao
VMC

RJBB_APP

TOWER

27/09 1490x45
13/31 1200x30

民間 civil

9999

150@4KT

29.79

RJOY 160000Z 15004KT 100V200 9999 FEW010 SCT030 BKN/// 29/25 Q1009

RJOO / Osaka
VMC

RJBB_APP

TOWER

32L/14R 3000x60
32R/14L 1830x45

民間 civil

9999

230@10KT

29.79

RJOO 160000Z 23010KT 9999 FEW008 BKN015 BKN/// 30/23 Q1009

RJOB / Okayama
VMC

RJBB_APP

TOWER

07/25 3000x45

民間 civil

9999

000@2KT

29.82

RJOB 160000Z VRB02KT 9999 PRFG FEW000 SCT050 BKN160 26/24 Q1010

RJBB / Kansai
VMC

RJBB_APP

TOWER

06R/24L 3500x60
06L/24R 4000x60

民間 civil

9999

200@21KT

29.79

RJBB 160030Z 20021KT 9999 FEW015 SCT040 BKN/// 29/25 Q1009 NOSIG

RJBE / Kobe
VMC

RJBB_APP

TOWER

09/27 2500x60

民間 civil

9999

220@15KT

29.79

RJBE 160000Z 22015KT 9999 FEW004 BKN/// 27/25 Q1009

RJBT / Tajima
VMC

NO RADAR

REMOTE

01/19 1200x30

民間 civil

9999

180@5KT

29.76

RJBT 160000Z 18005KT 140V210 9999 FEW025 SCT050 BKN080 27/27 Q1008

RJOR / Tottori
VMC

NO RADAR

RADIO

10/28 2000x45

民間 civil

9999

140@5KT

29.73

RJOR 160000Z 14005KT 9999 FEW035 SCT070 BKN100 29/23 Q1007

RJNO / Oki

NO RADAR

REMOTE

07/25 2000x45

民間 civil

過去5時間に発表されたMETARがありません。

RJOH / Miho
VMC

RJOH_APP

TOWER

25/07 2500x45

共用 dual

9999

220@7KT

29.73

RJOH 160000Z 22007KT 9999 -RA FEW030 BKN080 OVC150 27/23 Q1007

RJOC / Izumo
VMC

RJOH_APP

RADIO

07/25 2000x45

共用 dual

9999

190@8KT

29.70

RJOC 160000Z 19008KT 9999 -SHRA FEW020 SCT030 BKN045 26/24 Q1006

RJDG Fukuoka Control

RJOT / Takamatsu
VMC

RJBB_APP

TOWER

26/08 2500x60

民間 civil

9000

260@4KT

29.82

RJOT 160000Z 26004KT 9000 -SHRA FEW002 SCT015 BKN040 25/24 Q1010

RJOK / Kochi
VMC

RJBB_APP

TOWER

32/14 2500x45

民間 civil

6000

080@3KT

29.82

RJOK 160030Z 08003KT 050V140 6000 R32/1000VP1800U TSRA FEW004 SCT010 BKN015 SCT020CB 25/24 Q1010 RMK 1ST004 3ST010 5CU015 3CB020 A2985 FBL TS 20KM E MOV NE CB OHD MOV NE

RJOS / Tokushima
VMC

RJOS_APP

TOWER

29/11 2500x45

共用 dual

9999

210@8KT

29.79

RJOS 160024Z 21008KT 140V260 9999 FEW012 BKN020 BKN/// 29/25 Q1009 RMK 1CU012 5CU020 A2981

RJOA / Hiroshima
VMC

RJOA_APP

TOWER

10/28 3000x60

民間 civil

9999

230@4KT

29.85

RJOA 160000Z 23004KT 170V260 9999 FEW002 SCT020 BKN090 26/23 Q1011

RJBH / Hiroshimanishi

NO RADAR

Flight Service

04/22 1800x45

民間 civil

過去5時間に発表されたMETARがありません。

RJOI / Iwakuni
VMC

RJOI_APP

TOWER

02/20 2440x60

共用 dual

9999

110@4KT

29.82

RJOI 152355Z 11004KT 9999 SCT015 BKN025 28/25 A2982 RMK SLP097 T02780250 10283 20267 51010

RJOM / Matsuyama
VMC

RJOI_APP

TOWER

14/32 2500x45

民間 civil

9999

000@2KT

29.79

RJOM 160000Z VRB02KT 9999 FEW005 SCT020 BKN050 27/26 Q1009

RJOZ / Ozuki

RJFZ_APP

TOWER

35/17 1201x61
12/30 899x46

自衛隊 military

過去5時間に発表されたMETARがありません。

RJOF / Hofu
VMC

RJFZ_APP

TOWER

30/12 1180x60
01/19 1480x45

自衛隊 military

9999

090@9KT

29.79

RJOF 160032Z 09009KT 060V120 9999 -SHRA FEW010 BKN015 BKN040 27/24 Q1009 RMK 1ST010 6CU015 6CU040 A2982

RJDC / Yamaguchi-Ube
VMC

RJFZ_APP

RADIO

07/25 2500x45

民間 civil

9999

080@13KT

29.76

RJDC 160000Z 08013KT 9999 FEW008 SCT015 BKN120 27/26 Q1008

RJFR / Kitakyushu
VMC

RJFZ_APP

TOWER

18/36 2500x60

民間 civil

9999

070@11KT

29.76

RJFR 160000Z 07011KT 9999 FEW010 SCT070 BKN120 28/23 Q1008

RJFZ / Tsuiki

RJFZ_APP

TOWER

25/07 2399x46

自衛隊 military

過去5時間に発表されたMETARがありません。

RJOW / Iwami
VMC

NO RADAR

REMOTE

11/29 2000x45

民間 civil

9999

290@4KT

29.79

RJOW 160000Z 29004KT 250V350 9999 FEW030 SCT080 BKN130 29/24 Q1009

RJDT / Tsushima
VMC

NO RADAR

REMOTE

32/14 1900x45

民間 civil

9999

130@4KT

29.76

RJDT 160000Z 13004KT 110V170 9999 -RA FEW015 SCT050 BKN080 27/25 Q1008

RJFF / Fukuoka
VMC

RJFF_APP

TOWER

16/34 2800x60

民間 civil

9999

030@4KT

29.76

RJFF 160030Z 03004KT 350V130 9999 FEW030 BKN150 BKN/// 31/22 Q1008 NOSIG

RJFS / Saga
VMC

RJFF_APP

RADIO

29/11 2000x45

民間 civil

9999

030@6KT

29.73

RJFS 160000Z 03006KT 9999 FEW015 SCT140 BKN170 30/25 Q1007

RJFA / Ashiya

RJFF_APP

TOWER

12/30 1640x46

自衛隊 military

過去5時間に発表されたMETARがありません。

RJDB / Iki

RJFF_APP

REMOTE

20/02 1200x30

民間 civil

過去5時間に発表されたMETARがありません。

RJFO / Oita
VMC

RJFO_APP

TOWER

01/19 3000x45

民間 civil

9999

140@10KT

29.79

RJFO 160024Z 14010KT 9999 VCSH FEW015 BKN130 BKN150 27/25 Q1009 RMK 1CU015 5AC130 6AC150 A2980

RJFU / Nagasaki
VMC

RJFU_APP

TOWER

32/14 3000x60

民間 civil

9999

160@7KT

29.73

RJFU 160000Z 16007KT 9999 FEW020 BKN150 BKN/// 29/26 Q1007

RJDU / Omura

RJFU_APP

TOWER

18/36 1200x30

自衛隊 military

過去5時間に発表されたMETARがありません。

RJFE / Fukue

NO RADAR

RADIO

03/21 2000x45

民間 civil

過去5時間に発表されたMETARがありません。

RJDO / Ojika

NO RADAR

REMOTE

03/21 800x30

民間 civil

過去5時間に発表されたMETARがありません。

RJDK / Kamigoto

NO RADAR

REMOTE

17/35 800x30

民間 civil

過去5時間に発表されたMETARがありません。

RJDA / Amakusa

NO RADAR

Flight Service

31/13 1000x30

民間 civil

過去5時間に発表されたMETARがありません。

RJFT / Kumamoto
VMC

RJFT_APP

TOWER

07/25 3000x45

民間 civil

9999

000@2KT

29.76

RJFT 160000Z VRB02KT 9999 FEW025 SCT140 BKN160 30/23 Q1008

RJFN / Nyutabaru

RJFM_APP

TOWER

28/10 2701x46

自衛隊 military

過去5時間に発表されたMETARがありません。

RJFM / Miyazaki
IMC

RJFM_APP

TOWER

27/09 2500x45

民間 civil

3000

330@5KT

29.76

RJFM 160038Z 33005KT 260V010 3000 +SHRA BR FEW004 SCT015 BKN020 28/27 Q1008 RMK 1ST004 3CU015 6CU020 A2977 RI++

RJFK / Kagoshima
VMC

RJFK_APP

TOWER

34/16 3000x45

民間 civil

9999

110@6KT

29.76

RJFK 160000Z 11006KT 070V160 9999 VCVA FEW010 SCT030 BKN/// 27/25 Q1008

RJFY / Kanoya

RJFY_APP

TOWER

26L/08R 2250x45
26R/08L 1200x40

自衛隊 military

過去5時間に発表されたMETARがありません。

RJFG / Tanegashima
VMC

NO RADAR

RADIO

31/13 2000x45

民間 civil

9999

150@11KT

29.76

RJFG 160005Z 15011KT 9999 FEW005 SCT010 BKN140 26/25 Q1008 RMK 1ST005 3CU010 5AC140 A2977

RJFC / Yakushima

NO RADAR

REMOTE

14/32 1500x45

民間 civil

過去5時間に発表されたMETARがありません。

RORG Naha Control

ROAH / Naha
VMC

ROAH_APP

TOWER

36/18 3000x45

共用 dual

8000

180@18G30KT

29.59

ROAH 160032Z 18018G30KT 8000 -RA FEW010 SCT015 OVC080 27/25 Q1002 RMK 2CU010 4CU015 8AS080 A2961

RORA / Aguni

ROAH_APP

REMOTE

01/19 800x25

民間 civil

過去5時間に発表されたMETARがありません。

ROKJ / Kumejima

ROAH_APP

REMOTE

03/21 2000x45

民間 civil

過去5時間に発表されたMETARがありません。

RODN / Kadena
VMC

ROAH_APP

TOWER

05L/23R 3688x91
05R/23L 3688x61

自衛隊 military

9999

170@15G21KT

29.62

RODN 152356Z 17015G21KT 10SM SCT020 OVC035 27/25 A2962 RMK AO2A RAE47 SLP035 P0006 60041 70208 T02670251 10268 20253 53004

ROTM / Futenma
VMC

ROAH_APP

TOWER

06/24 2740x45

自衛隊 military

8000

180@15G22KT

29.64

ROTM 152356Z 18015G22KT 8000 -SHRA BR SCT010 BKN018 OVC035 26/26 A2964 RMK SLP021 STNPR29340 XWND ADV P0012 60056 T02610256 10267 20250 55000

RORS / Shimojishima
VMC

RORS_APP

TOWER

17/35 3000x60

民間 civil

8000

210@13KT

29.59

RORS 160012Z 21013KT 8000 -SHRA FEW008 BKN010 BKN040 26/26 Q1002 RMK 2ST008 5CU010 7SC040 A2959 3000NE

ROMY / Miyako
VMC

RORS_APP

TOWER

04/22 2000x45

民間 civil

7000

200@11KT

29.59

ROMY 160000Z 20011KT 7000 -SHRA FEW006 BKN011 BKN040 26/25 Q1002

ROIG / New Ishigaki
VMC

RORS_APP

TOWER

22/04 2000x45

民間 civil

7000

240@12KT

29.59

ROIG 160037Z 24012KT 7000 R04/0450VP1800U TSRA FEW005 SCT015 FEW025CB BKN030 25/25 Q1002 RMK 1ST005 3CU015 2CB025 5CU030 A2959 FBL TS OHD MOV E

RORT / Tarama

RORS_APP

REMOTE

36/18 1500x45

民間 civil

過去5時間に発表されたMETARがありません。

RJKA / Amami
VMC

NO RADAR

RADIO

03/21 2000x45

民間 civil

9999

160@17KT

29.65

RJKA 160000Z 16017KT 9999 FEW010 SCT015 BKN/// 30/26 Q1004

RJKI / Kikai

NO RADAR

REMOTE

07/25 1200x30

民間 civil

過去5時間に発表されたMETARがありません。

RJKN / Tokunoshima

NO RADAR

REMOTE

19/01 2000x45

民間 civil

過去5時間に発表されたMETARがありません。

RJKB / Okierabu

NO RADAR

REMOTE

04/22 1350x45

民間 civil

過去5時間に発表されたMETARがありません。

RORY / Yoron
VMC

NO RADAR

REMOTE

32/14 1320x30

民間 civil

9999

170@18KT

29.62

RORY 160000Z AUTO 17018KT 9999 -RA OVC011 27/26 Q1003

RORK / Kitadaito

NO RADAR

REMOTE

03/21 1500x45

民間 civil

過去5時間に発表されたMETARがありません。

ROMD / Minami-daito

NO RADAR

REMOTE

02/20 1500x45

民間 civil

過去5時間に発表されたMETARがありません。

ROYN / Yonaguni
VMC

NO RADAR

REMOTE

26/08 2000x45

民間 civil

9999

150@1KT

29.56

ROYN 160000Z AUTO 15001KT 9999 FEW090 SCT140 //////CB 27/26 Q1001

RORH / Hateruma

NO RADAR

REMOTE

02/20 800x25

民間 civil

過去5時間に発表されたMETARがありません。

ROKR / Kerama

NO RADAR

REMOTE

02/20 800x25

民間 civil

過去5時間に発表されたMETARがありません。